EDDL/DUS METAR and TAF weather

Enter ICAO airport designator
Station Type Date Time Source
EDDL METAR 2019/02/23 23:20 UTC NOAA

EDDL 232320Z 15013KT CAVOK 06/M04 Q1037 NOSIG


Station Type Date Time Source
EDDL Decoded METAR 2019/02/23 23:20 UTC NOAA

Duesseldorf, Germany (EDDL) 51-18N 006-46E 41M
Feb 23, 2019 - 06:20 PM EST / 2019.02.23 2320 UTC
Wind: from the SSE (150 degrees) at 15 MPH (13 KT):0
Visibility: greater than 7 mile(s):0
Temperature: 42 F (6 C)
Dew Point: 24 F (-4 C)
Relative Humidity: 48%
Pressure (altimeter): 30.62 in. Hg (1037 hPa)
ob: EDDL 232320Z 15013KT CAVOK 06/M04 Q1037 NOSIG
cycle: 23

Station Type Date Time Source
EDDL TAF 2019/02/23 18:28 UTC NOAA

TAF EDDL 231700Z 2318/2424 15008KT CAVOK
BECMG 2415/2417 12003KT


Example: see airport list